sensor_id;sensor_type;location;lat;lon;timestamp;temperature;humidity
7411;DHT22;3747;48.628;9.058;2023-06-22T00:00:59;18.00;99.90
7411;DHT22;3747;48.628;9.058;2023-06-22T00:03:27;18.00;99.90
7411;DHT22;3747;48.628;9.058;2023-06-22T00:05:54;17.90;99.90
7411;DHT22;3747;48.628;9.058;2023-06-22T00:08:21;17.80;99.90
7411;DHT22;3747;48.628;9.058;2023-06-22T00:10:48;17.90;99.90
7411;DHT22;3747;48.628;9.058;2023-06-22T00:13:16;17.80;99.90
7411;DHT22;3747;48.628;9.058;2023-06-22T00:15:43;17.70;99.90
7411;DHT22;3747;48.628;9.058;2023-06-22T00:18:10;17.60;99.90
7411;DHT22;3747;48.628;9.058;2023-06-22T00:20:40;17.60;99.90
7411;DHT22;3747;48.628;9.058;2023-06-22T00:23:07;17.50;99.90
7411;DHT22;3747;48.628;9.058;2023-06-22T00:25:34;17.50;99.90
7411;DHT22;3747;48.628;9.058;2023-06-22T00:28:01;17.60;99.90
7411;DHT22;3747;48.628;9.058;2023-06-22T00:30:30;17.50;99.90
7411;DHT22;3747;48.628;9.058;2023-06-22T00:32:57;17.50;99.90
7411;DHT22;3747;48.628;9.058;2023-06-22T00:35:24;17.50;99.90
7411;DHT22;3747;48.628;9.058;2023-06-22T00:37:55;17.70;99.90
7411;DHT22;3747;48.628;9.058;2023-06-22T00:40:26;17.90;99.90
7411;DHT22;3747;48.628;9.058;2023-06-22T00:42:53;17.70;99.90
7411;DHT22;3747;48.628;9.058;2023-06-22T00:45:20;17.70;99.90
7411;DHT22;3747;48.628;9.058;2023-06-22T00:47:47;17.60;99.90
7411;DHT22;3747;48.628;9.058;2023-06-22T00:50:18;17.40;99.90
7411;DHT22;3747;48.628;9.058;2023-06-22T00:52:47;17.40;99.90
7411;DHT22;3747;48.628;9.058;2023-06-22T00:55:16;17.40;99.90
7411;DHT22;3747;48.628;9.058;2023-06-22T00:57:43;17.50;99.90
7411;DHT22;3747;48.628;9.058;2023-06-22T01:00:12;17.50;99.90
7411;DHT22;3747;48.628;9.058;2023-06-22T01:02:45;17.70;99.90
7411;DHT22;3747;48.628;9.058;2023-06-22T01:05:12;17.60;99.90
7411;DHT22;3747;48.628;9.058;2023-06-22T01:07:43;17.60;99.90
7411;DHT22;3747;48.628;9.058;2023-06-22T01:10:19;17.50;99.90
7411;DHT22;3747;48.628;9.058;2023-06-22T01:12:52;17.50;99.90
7411;DHT22;3747;48.628;9.058;2023-06-22T01:15:23;17.40;99.90
7411;DHT22;3747;48.628;9.058;2023-06-22T01:17:52;17.40;99.90
7411;DHT22;3747;48.628;9.058;2023-06-22T01:20:20;17.40;99.90
7411;DHT22;3747;48.628;9.058;2023-06-22T01:23:02;17.40;99.90
7411;DHT22;3747;48.628;9.058;2023-06-22T01:25:40;17.30;99.90
7411;DHT22;3747;48.628;9.058;2023-06-22T01:28:31;17.30;99.90
7411;DHT22;3747;48.628;9.058;2023-06-22T01:30:58;17.30;99.90
7411;DHT22;3747;48.628;9.058;2023-06-22T01:33:33;17.40;99.90
7411;DHT22;3747;48.628;9.058;2023-06-22T01:36:01;17.30;99.90
7411;DHT22;3747;48.628;9.058;2023-06-22T01:38:29;17.30;99.90
7411;DHT22;3747;48.628;9.058;2023-06-22T01:40:57;17.30;99.90
7411;DHT22;3747;48.628;9.058;2023-06-22T01:43:25;17.30;99.90
7411;DHT22;3747;48.628;9.058;2023-06-22T01:45:54;17.40;99.90
7411;DHT22;3747;48.628;9.058;2023-06-22T01:48:21;17.30;99.90
7411;DHT22;3747;48.628;9.058;2023-06-22T01:50:49;17.20;99.90
7411;DHT22;3747;48.628;9.058;2023-06-22T01:53:15;17.20;99.90
7411;DHT22;3747;48.628;9.058;2023-06-22T01:55:42;17.20;99.90
7411;DHT22;3747;48.628;9.058;2023-06-22T01:58:09;17.20;99.90
7411;DHT22;3747;48.628;9.058;2023-06-22T02:00:38;17.20;99.90
7411;DHT22;3747;48.628;9.058;2023-06-22T02:03:10;17.20;99.90
7411;DHT22;3747;48.628;9.058;2023-06-22T02:05:47;17.20;99.90
7411;DHT22;3747;48.628;9.058;2023-06-22T02:08:19;17.30;99.90
7411;DHT22;3747;48.628;9.058;2023-06-22T02:10:47;17.20;99.90
7411;DHT22;3747;48.628;9.058;2023-06-22T02:13:14;17.30;99.90
7411;DHT22;3747;48.628;9.058;2023-06-22T02:15:42;17.20;99.90
7411;DHT22;3747;48.628;9.058;2023-06-22T02:18:11;17.10;99.90
7411;DHT22;3747;48.628;9.058;2023-06-22T02:20:38;17.00;99.90
7411;DHT22;3747;48.628;9.058;2023-06-22T02:23:05;17.10;99.90
7411;DHT22;3747;48.628;9.058;2023-06-22T02:25:32;17.10;99.90
7411;DHT22;3747;48.628;9.058;2023-06-22T02:27:59;17.10;99.90
7411;DHT22;3747;48.628;9.058;2023-06-22T02:30:25;17.00;99.90
7411;DHT22;3747;48.628;9.058;2023-06-22T02:32:52;17.00;99.90
7411;DHT22;3747;48.628;9.058;2023-06-22T02:35:25;17.00;99.90
7411;DHT22;3747;48.628;9.058;2023-06-22T02:37:52;16.90;99.90
7411;DHT22;3747;48.628;9.058;2023-06-22T02:40:19;16.80;99.90
7411;DHT22;3747;48.628;9.058;2023-06-22T02:42:46;16.80;99.90
7411;DHT22;3747;48.628;9.058;2023-06-22T02:45:13;16.80;99.90
7411;DHT22;3747;48.628;9.058;2023-06-22T02:47:40;16.90;99.90
7411;DHT22;3747;48.628;9.058;2023-06-22T02:50:07;16.90;99.90
7411;DHT22;3747;48.628;9.058;2023-06-22T02:52:35;16.90;99.90
7411;DHT22;3747;48.628;9.058;2023-06-22T02:55:05;16.90;99.90
7411;DHT22;3747;48.628;9.058;2023-06-22T02:57:32;16.90;99.90
7411;DHT22;3747;48.628;9.058;2023-06-22T02:59:59;16.90;99.90
7411;DHT22;3747;48.628;9.058;2023-06-22T03:02:26;16.90;99.90
7411;DHT22;3747;48.628;9.058;2023-06-22T03:04:53;16.90;99.90
7411;DHT22;3747;48.628;9.058;2023-06-22T03:07:20;16.90;99.90
7411;DHT22;3747;48.628;9.058;2023-06-22T03:09:48;16.80;99.90
7411;DHT22;3747;48.628;9.058;2023-06-22T03:12:14;16.80;99.90
7411;DHT22;3747;48.628;9.058;2023-06-22T03:14:41;16.60;99.90
7411;DHT22;3747;48.628;9.058;2023-06-22T03:17:09;16.50;99.90
7411;DHT22;3747;48.628;9.058;2023-06-22T03:19:36;16.40;99.90
7411;DHT22;3747;48.628;9.058;2023-06-22T03:22:04;16.50;99.90
7411;DHT22;3747;48.628;9.058;2023-06-22T03:24:30;16.50;99.90
7411;DHT22;3747;48.628;9.058;2023-06-22T03:26:58;16.30;99.90
7411;DHT22;3747;48.628;9.058;2023-06-22T03:29:25;16.20;99.90
7411;DHT22;3747;48.628;9.058;2023-06-22T03:31:52;16.10;99.90
7411;DHT22;3747;48.628;9.058;2023-06-22T03:34:19;16.10;99.90
7411;DHT22;3747;48.628;9.058;2023-06-22T03:36:45;16.10;99.90
7411;DHT22;3747;48.628;9.058;2023-06-22T03:39:12;16.20;99.90
7411;DHT22;3747;48.628;9.058;2023-06-22T03:41:39;16.20;99.90
7411;DHT22;3747;48.628;9.058;2023-06-22T03:44:07;16.20;99.90
7411;DHT22;3747;48.628;9.058;2023-06-22T03:46:36;16.20;99.90
7411;DHT22;3747;48.628;9.058;2023-06-22T03:49:02;16.10;99.90
7411;DHT22;3747;48.628;9.058;2023-06-22T03:51:47;16.10;99.90
7411;DHT22;3747;48.628;9.058;2023-06-22T03:54:14;16.20;99.90
7411;DHT22;3747;48.628;9.058;2023-06-22T03:56:41;16.20;99.90
7411;DHT22;3747;48.628;9.058;2023-06-22T03:59:09;16.30;99.90
7411;DHT22;3747;48.628;9.058;2023-06-22T04:01:36;16.40;99.90
7411;DHT22;3747;48.628;9.058;2023-06-22T04:04:03;16.50;99.90
7411;DHT22;3747;48.628;9.058;2023-06-22T04:06:30;16.60;99.90
7411;DHT22;3747;48.628;9.058;2023-06-22T04:08:56;16.70;99.90
7411;DHT22;3747;48.628;9.058;2023-06-22T04:11:23;16.70;99.90
7411;DHT22;3747;48.628;9.058;2023-06-22T04:13:50;16.80;99.90
7411;DHT22;3747;48.628;9.058;2023-06-22T04:16:18;16.90;99.90
7411;DHT22;3747;48.628;9.058;2023-06-22T04:18:44;17.00;99.90
7411;DHT22;3747;48.628;9.058;2023-06-22T04:21:11;17.20;99.90
7411;DHT22;3747;48.628;9.058;2023-06-22T04:23:38;17.30;99.90
7411;DHT22;3747;48.628;9.058;2023-06-22T04:26:05;17.40;99.90
7411;DHT22;3747;48.628;9.058;2023-06-22T04:28:31;17.40;99.90
7411;DHT22;3747;48.628;9.058;2023-06-22T04:31:00;17.50;99.90
7411;DHT22;3747;48.628;9.058;2023-06-22T04:33:29;17.60;99.90
7411;DHT22;3747;48.628;9.058;2023-06-22T04:35:57;17.70;99.90
7411;DHT22;3747;48.628;9.058;2023-06-22T04:38:24;17.80;99.90
7411;DHT22;3747;48.628;9.058;2023-06-22T04:40:51;17.90;99.90
7411;DHT22;3747;48.628;9.058;2023-06-22T04:43:18;18.00;99.90
7411;DHT22;3747;48.628;9.058;2023-06-22T04:45:45;18.00;99.90
7411;DHT22;3747;48.628;9.058;2023-06-22T04:48:12;18.20;99.90
7411;DHT22;3747;48.628;9.058;2023-06-22T04:50:42;18.40;99.90
7411;DHT22;3747;48.628;9.058;2023-06-22T04:53:09;18.60;99.90
7411;DHT22;3747;48.628;9.058;2023-06-22T04:55:39;18.80;99.90
7411;DHT22;3747;48.628;9.058;2023-06-22T04:58:07;19.00;99.90
7411;DHT22;3747;48.628;9.058;2023-06-22T05:00:33;19.20;99.90
7411;DHT22;3747;48.628;9.058;2023-06-22T05:03:02;19.40;99.90
7411;DHT22;3747;48.628;9.058;2023-06-22T05:05:29;19.60;99.90
7411;DHT22;3747;48.628;9.058;2023-06-22T05:07:57;19.80;99.90
7411;DHT22;3747;48.628;9.058;2023-06-22T05:10:26;20.00;99.90
7411;DHT22;3747;48.628;9.058;2023-06-22T05:12:52;20.00;99.90
7411;DHT22;3747;48.628;9.058;2023-06-22T05:15:19;20.20;99.90
7411;DHT22;3747;48.628;9.058;2023-06-22T05:17:47;20.40;99.90
7411;DHT22;3747;48.628;9.058;2023-06-22T05:20:14;20.50;99.90
7411;DHT22;3747;48.628;9.058;2023-06-22T05:22:43;20.70;99.90
7411;DHT22;3747;48.628;9.058;2023-06-22T05:25:11;20.90;99.90
7411;DHT22;3747;48.628;9.058;2023-06-22T05:27:38;21.00;99.90
7411;DHT22;3747;48.628;9.058;2023-06-22T05:30:06;21.20;99.90
7411;DHT22;3747;48.628;9.058;2023-06-22T05:32:33;21.30;99.90
7411;DHT22;3747;48.628;9.058;2023-06-22T05:35:00;21.40;99.90
7411;DHT22;3747;48.628;9.058;2023-06-22T05:37:27;21.60;99.90
7411;DHT22;3747;48.628;9.058;2023-06-22T05:39:54;21.70;99.90
7411;DHT22;3747;48.628;9.058;2023-06-22T05:42:24;21.90;99.90
7411;DHT22;3747;48.628;9.058;2023-06-22T05:44:51;22.10;99.90
7411;DHT22;3747;48.628;9.058;2023-06-22T05:47:18;22.20;99.90
7411;DHT22;3747;48.628;9.058;2023-06-22T05:49:45;22.40;99.90
7411;DHT22;3747;48.628;9.058;2023-06-22T05:52:12;22.60;99.90
7411;DHT22;3747;48.628;9.058;2023-06-22T05:54:38;22.70;99.90
7411;DHT22;3747;48.628;9.058;2023-06-22T05:57:07;22.50;99.90
7411;DHT22;3747;48.628;9.058;2023-06-22T05:59:35;22.60;99.90
7411;DHT22;3747;48.628;9.058;2023-06-22T06:02:02;22.70;99.90
7411;DHT22;3747;48.628;9.058;2023-06-22T06:04:28;22.70;99.90
7411;DHT22;3747;48.628;9.058;2023-06-22T06:06:55;22.60;99.90
7411;DHT22;3747;48.628;9.058;2023-06-22T06:09:22;22.60;99.90
7411;DHT22;3747;48.628;9.058;2023-06-22T06:11:49;22.50;99.90
7411;DHT22;3747;48.628;9.058;2023-06-22T06:14:15;22.60;99.90
7411;DHT22;3747;48.628;9.058;2023-06-22T06:16:44;22.90;99.90
7411;DHT22;3747;48.628;9.058;2023-06-22T06:19:11;23.40;99.90
7411;DHT22;3747;48.628;9.058;2023-06-22T06:21:37;23.70;99.90
7411;DHT22;3747;48.628;9.058;2023-06-22T06:24:04;24.10;99.90
7411;DHT22;3747;48.628;9.058;2023-06-22T06:26:31;24.50;99.90
7411;DHT22;3747;48.628;9.058;2023-06-22T06:29:01;24.80;99.90
7411;DHT22;3747;48.628;9.058;2023-06-22T06:31:28;25.00;99.90
7411;DHT22;3747;48.628;9.058;2023-06-22T06:33:57;25.20;99.90
7411;DHT22;3747;48.628;9.058;2023-06-22T06:36:23;25.50;99.90
7411;DHT22;3747;48.628;9.058;2023-06-22T06:38:50;25.60;99.90
7411;DHT22;3747;48.628;9.058;2023-06-22T06:41:17;25.60;99.90
7411;DHT22;3747;48.628;9.058;2023-06-22T06:43:43;25.70;99.90
7411;DHT22;3747;48.628;9.058;2023-06-22T06:46:10;25.70;99.90
7411;DHT22;3747;48.628;9.058;2023-06-22T06:48:37;26.00;99.90
7411;DHT22;3747;48.628;9.058;2023-06-22T06:51:06;26.10;99.90
7411;DHT22;3747;48.628;9.058;2023-06-22T06:53:40;26.30;99.90
7411;DHT22;3747;48.628;9.058;2023-06-22T06:56:07;26.50;99.90
7411;DHT22;3747;48.628;9.058;2023-06-22T06:58:35;26.60;99.90
7411;DHT22;3747;48.628;9.058;2023-06-22T07:01:02;26.90;99.90
7411;DHT22;3747;48.628;9.058;2023-06-22T07:03:29;27.20;99.90
7411;DHT22;3747;48.628;9.058;2023-06-22T07:06:09;27.30;99.90
7411;DHT22;3747;48.628;9.058;2023-06-22T07:08:36;27.70;99.90
7411;DHT22;3747;48.628;9.058;2023-06-22T07:11:05;27.70;99.90
7411;DHT22;3747;48.628;9.058;2023-06-22T07:13:31;27.70;99.90
7411;DHT22;3747;48.628;9.058;2023-06-22T07:15:59;27.70;99.90
7411;DHT22;3747;48.628;9.058;2023-06-22T07:18:25;27.80;99.90
7411;DHT22;3747;48.628;9.058;2023-06-22T07:20:53;27.70;99.90
7411;DHT22;3747;48.628;9.058;2023-06-22T07:23:30;27.60;99.90
7411;DHT22;3747;48.628;9.058;2023-06-22T07:25:57;27.80;99.90
7411;DHT22;3747;48.628;9.058;2023-06-22T07:28:38;27.80;99.90
7411;DHT22;3747;48.628;9.058;2023-06-22T07:31:06;27.60;99.90
7411;DHT22;3747;48.628;9.058;2023-06-22T07:33:34;28.00;99.90
7411;DHT22;3747;48.628;9.058;2023-06-22T07:36:01;27.90;99.90
7411;DHT22;3747;48.628;9.058;2023-06-22T07:38:30;27.90;99.90
7411;DHT22;3747;48.628;9.058;2023-06-22T07:40:57;28.20;99.90
7411;DHT22;3747;48.628;9.058;2023-06-22T07:43:23;28.40;99.90
7411;DHT22;3747;48.628;9.058;2023-06-22T07:45:50;28.20;99.90
7411;DHT22;3747;48.628;9.058;2023-06-22T07:48:20;28.40;99.90
7411;DHT22;3747;48.628;9.058;2023-06-22T07:50:49;28.70;99.90
7411;DHT22;3747;48.628;9.058;2023-06-22T07:53:15;28.70;99.90
7411;DHT22;3747;48.628;9.058;2023-06-22T07:55:43;29.00;99.90
7411;DHT22;3747;48.628;9.058;2023-06-22T07:58:10;29.30;99.90
7411;DHT22;3747;48.628;9.058;2023-06-22T08:00:37;29.20;99.90
7411;DHT22;3747;48.628;9.058;2023-06-22T08:03:03;29.60;99.90
7411;DHT22;3747;48.628;9.058;2023-06-22T08:05:30;30.00;99.90
7411;DHT22;3747;48.628;9.058;2023-06-22T08:07:57;29.90;99.90
7411;DHT22;3747;48.628;9.058;2023-06-22T08:10:31;29.90;99.90
7411;DHT22;3747;48.628;9.058;2023-06-22T08:12:59;29.70;99.90
7411;DHT22;3747;48.628;9.058;2023-06-22T08:15:26;28.60;99.90
7411;DHT22;3747;48.628;9.058;2023-06-22T08:17:53;28.50;99.90
7411;DHT22;3747;48.628;9.058;2023-06-22T08:20:20;28.40;99.90
7411;DHT22;3747;48.628;9.058;2023-06-22T08:22:47;29.10;99.90
7411;DHT22;3747;48.628;9.058;2023-06-22T08:25:13;29.90;99.90
7411;DHT22;3747;48.628;9.058;2023-06-22T08:27:40;30.10;99.90
7411;DHT22;3747;48.628;9.058;2023-06-22T08:30:17;30.40;99.90
7411;DHT22;3747;48.628;9.058;2023-06-22T08:32:44;30.30;99.90
7411;DHT22;3747;48.628;9.058;2023-06-22T08:35:11;28.70;99.90
7411;DHT22;3747;48.628;9.058;2023-06-22T08:37:37;28.60;99.90
7411;DHT22;3747;48.628;9.058;2023-06-22T08:40:06;27.90;99.90
7411;DHT22;3747;48.628;9.058;2023-06-22T08:42:35;27.30;99.90
7411;DHT22;3747;48.628;9.058;2023-06-22T08:45:02;26.90;99.90
7411;DHT22;3747;48.628;9.058;2023-06-22T08:47:56;27.30;99.90
7411;DHT22;3747;48.628;9.058;2023-06-22T08:50:23;27.60;99.90
7411;DHT22;3747;48.628;9.058;2023-06-22T08:52:50;28.50;99.90
7411;DHT22;3747;48.628;9.058;2023-06-22T08:55:16;29.10;99.90
7411;DHT22;3747;48.628;9.058;2023-06-22T08:57:43;29.00;99.90
7411;DHT22;3747;48.628;9.058;2023-06-22T09:00:11;28.50;99.90
7411;DHT22;3747;48.628;9.058;2023-06-22T09:02:42;28.80;99.90
7411;DHT22;3747;48.628;9.058;2023-06-22T09:05:10;28.80;99.90
7411;DHT22;3747;48.628;9.058;2023-06-22T09:07:40;28.70;99.90
7411;DHT22;3747;48.628;9.058;2023-06-22T09:10:07;29.40;99.90
7411;DHT22;3747;48.628;9.058;2023-06-22T09:12:34;30.20;99.90
7411;DHT22;3747;48.628;9.058;2023-06-22T09:15:03;31.10;99.90
7411;DHT22;3747;48.628;9.058;2023-06-22T09:17:32;31.20;99.90
7411;DHT22;3747;48.628;9.058;2023-06-22T09:19:59;31.10;99.90
7411;DHT22;3747;48.628;9.058;2023-06-22T09:22:28;31.10;99.90
7411;DHT22;3747;48.628;9.058;2023-06-22T09:24:55;31.30;99.90
7411;DHT22;3747;48.628;9.058;2023-06-22T09:27:21;32.00;99.90
7411;DHT22;3747;48.628;9.058;2023-06-22T09:29:48;32.40;99.90
7411;DHT22;3747;48.628;9.058;2023-06-22T09:32:15;32.30;99.90
7411;DHT22;3747;48.628;9.058;2023-06-22T09:34:41;32.40;99.90
7411;DHT22;3747;48.628;9.058;2023-06-22T09:37:08;32.40;99.90
7411;DHT22;3747;48.628;9.058;2023-06-22T09:39:36;32.80;99.90
7411;DHT22;3747;48.628;9.058;2023-06-22T09:42:03;32.90;99.90
7411;DHT22;3747;48.628;9.058;2023-06-22T09:44:31;32.70;99.90
7411;DHT22;3747;48.628;9.058;2023-06-22T09:46:58;33.00;99.90
7411;DHT22;3747;48.628;9.058;2023-06-22T09:49:25;33.10;99.90
7411;DHT22;3747;48.628;9.058;2023-06-22T09:51:52;34.00;99.90
7411;DHT22;3747;48.628;9.058;2023-06-22T09:54:18;34.80;99.90
7411;DHT22;3747;48.628;9.058;2023-06-22T09:56:46;34.50;99.90
7411;DHT22;3747;48.628;9.058;2023-06-22T09:59:13;34.50;99.90
7411;DHT22;3747;48.628;9.058;2023-06-22T10:01:40;33.60;99.90
7411;DHT22;3747;48.628;9.058;2023-06-22T10:04:06;32.60;99.90
7411;DHT22;3747;48.628;9.058;2023-06-22T10:06:33;32.30;99.90
7411;DHT22;3747;48.628;9.058;2023-06-22T10:09:00;31.90;99.90
7411;DHT22;3747;48.628;9.058;2023-06-22T10:11:26;31.90;99.90
7411;DHT22;3747;48.628;9.058;2023-06-22T10:13:57;32.10;99.90
7411;DHT22;3747;48.628;9.058;2023-06-22T10:16:25;32.50;99.90
7411;DHT22;3747;48.628;9.058;2023-06-22T10:18:56;33.10;99.90
7411;DHT22;3747;48.628;9.058;2023-06-22T10:21:23;33.70;99.90
7411;DHT22;3747;48.628;9.058;2023-06-22T10:23:49;34.00;99.90
7411;DHT22;3747;48.628;9.058;2023-06-22T10:26:16;34.00;99.90
7411;DHT22;3747;48.628;9.058;2023-06-22T10:28:43;33.90;99.90
7411;DHT22;3747;48.628;9.058;2023-06-22T10:31:11;33.70;99.90
7411;DHT22;3747;48.628;9.058;2023-06-22T10:33:37;33.40;99.90
7411;DHT22;3747;48.628;9.058;2023-06-22T10:36:07;33.80;99.90
7411;DHT22;3747;48.628;9.058;2023-06-22T10:38:33;34.10;99.90
7411;DHT22;3747;48.628;9.058;2023-06-22T10:41:00;34.60;99.00
7411;DHT22;3747;48.628;9.058;2023-06-22T10:43:27;34.40;98.60
7411;DHT22;3747;48.628;9.058;2023-06-22T10:45:53;34.00;99.30
7411;DHT22;3747;48.628;9.058;2023-06-22T10:48:21;33.80;98.90
7411;DHT22;3747;48.628;9.058;2023-06-22T10:50:48;33.30;99.90
7411;DHT22;3747;48.628;9.058;2023-06-22T10:53:15;33.30;99.90
7411;DHT22;3747;48.628;9.058;2023-06-22T10:55:41;33.20;99.90
7411;DHT22;3747;48.628;9.058;2023-06-22T10:58:08;33.50;99.90
7411;DHT22;3747;48.628;9.058;2023-06-22T11:00:35;33.50;99.90
7411;DHT22;3747;48.628;9.058;2023-06-22T11:03:02;33.70;99.90
7411;DHT22;3747;48.628;9.058;2023-06-22T11:05:31;33.60;99.90
7411;DHT22;3747;48.628;9.058;2023-06-22T11:07:58;33.60;99.90
7411;DHT22;3747;48.628;9.058;2023-06-22T11:10:24;33.30;99.90
7411;DHT22;3747;48.628;9.058;2023-06-22T11:12:51;33.00;99.90
7411;DHT22;3747;48.628;9.058;2023-06-22T11:15:18;32.90;99.90
7411;DHT22;3747;48.628;9.058;2023-06-22T11:17:45;32.90;99.90
7411;DHT22;3747;48.628;9.058;2023-06-22T11:20:12;32.70;99.90
7411;DHT22;3747;48.628;9.058;2023-06-22T11:22:40;32.50;99.90
7411;DHT22;3747;48.628;9.058;2023-06-22T11:25:08;32.20;99.90
7411;DHT22;3747;48.628;9.058;2023-06-22T11:27:37;32.00;99.90
7411;DHT22;3747;48.628;9.058;2023-06-22T11:30:04;32.40;99.90
7411;DHT22;3747;48.628;9.058;2023-06-22T11:32:31;33.30;99.90
7411;DHT22;3747;48.628;9.058;2023-06-22T11:34:59;33.70;99.90
7411;DHT22;3747;48.628;9.058;2023-06-22T11:37:26;34.00;99.90
7411;DHT22;3747;48.628;9.058;2023-06-22T11:39:54;34.10;99.10
7411;DHT22;3747;48.628;9.058;2023-06-22T11:42:21;34.00;99.60
7411;DHT22;3747;48.628;9.058;2023-06-22T11:44:48;33.80;98.80
7411;DHT22;3747;48.628;9.058;2023-06-22T11:47:15;33.60;98.90
7411;DHT22;3747;48.628;9.058;2023-06-22T11:49:42;33.00;99.30
7411;DHT22;3747;48.628;9.058;2023-06-22T11:52:08;32.90;99.60
7411;DHT22;3747;48.628;9.058;2023-06-22T11:54:35;33.10;99.90
7411;DHT22;3747;48.628;9.058;2023-06-22T11:57:04;32.90;99.90
7411;DHT22;3747;48.628;9.058;2023-06-22T11:59:31;32.70;99.90
7411;DHT22;3747;48.628;9.058;2023-06-22T12:01:59;32.10;99.90
7411;DHT22;3747;48.628;9.058;2023-06-22T12:04:26;31.70;99.90
7411;DHT22;3747;48.628;9.058;2023-06-22T12:06:53;31.20;99.90
7411;DHT22;3747;48.628;9.058;2023-06-22T12:09:19;30.40;99.90
7411;DHT22;3747;48.628;9.058;2023-06-22T12:11:46;30.10;99.90
7411;DHT22;3747;48.628;9.058;2023-06-22T12:14:14;30.90;99.90
7411;DHT22;3747;48.628;9.058;2023-06-22T12:16:41;31.40;99.90
7411;DHT22;3747;48.628;9.058;2023-06-22T12:19:09;31.20;99.90
7411;DHT22;3747;48.628;9.058;2023-06-22T12:21:37;30.90;99.90
7411;DHT22;3747;48.628;9.058;2023-06-22T12:24:04;30.70;99.90
7411;DHT22;3747;48.628;9.058;2023-06-22T12:26:31;30.30;99.90
7411;DHT22;3747;48.628;9.058;2023-06-22T12:28:58;30.00;99.90
7411;DHT22;3747;48.628;9.058;2023-06-22T12:31:26;30.00;99.90
7411;DHT22;3747;48.628;9.058;2023-06-22T12:33:52;29.80;99.90
7411;DHT22;3747;48.628;9.058;2023-06-22T12:36:19;29.60;99.90
7411;DHT22;3747;48.628;9.058;2023-06-22T12:38:46;29.60;99.90
7411;DHT22;3747;48.628;9.058;2023-06-22T12:41:14;29.70;99.90
7411;DHT22;3747;48.628;9.058;2023-06-22T12:43:40;29.80;99.90
7411;DHT22;3747;48.628;9.058;2023-06-22T12:46:07;29.70;99.90
7411;DHT22;3747;48.628;9.058;2023-06-22T12:48:35;29.50;99.90
7411;DHT22;3747;48.628;9.058;2023-06-22T12:51:07;29.70;99.90
7411;DHT22;3747;48.628;9.058;2023-06-22T12:53:33;29.60;99.90
7411;DHT22;3747;48.628;9.058;2023-06-22T12:56:00;29.60;99.90
7411;DHT22;3747;48.628;9.058;2023-06-22T12:58:27;29.60;99.90
7411;DHT22;3747;48.628;9.058;2023-06-22T13:00:53;29.70;99.90
7411;DHT22;3747;48.628;9.058;2023-06-22T13:03:20;29.50;99.90
7411;DHT22;3747;48.628;9.058;2023-06-22T13:05:48;29.30;99.90
7411;DHT22;3747;48.628;9.058;2023-06-22T13:08:15;29.20;99.90
7411;DHT22;3747;48.628;9.058;2023-06-22T13:10:41;29.30;99.90
7411;DHT22;3747;48.628;9.058;2023-06-22T13:13:08;29.30;99.90
7411;DHT22;3747;48.628;9.058;2023-06-22T13:15:35;29.70;99.90
7411;DHT22;3747;48.628;9.058;2023-06-22T13:18:01;29.90;99.90
7411;DHT22;3747;48.628;9.058;2023-06-22T13:20:28;29.70;99.90
7411;DHT22;3747;48.628;9.058;2023-06-22T13:22:57;29.70;99.90
7411;DHT22;3747;48.628;9.058;2023-06-22T13:25:23;30.10;99.90
7411;DHT22;3747;48.628;9.058;2023-06-22T13:27:52;30.00;99.90
7411;DHT22;3747;48.628;9.058;2023-06-22T13:30:19;30.10;99.90
7411;DHT22;3747;48.628;9.058;2023-06-22T13:32:46;30.30;99.90
7411;DHT22;3747;48.628;9.058;2023-06-22T13:35:13;29.90;99.90
7411;DHT22;3747;48.628;9.058;2023-06-22T13:37:39;30.10;99.90
7411;DHT22;3747;48.628;9.058;2023-06-22T13:40:08;30.40;99.90
7411;DHT22;3747;48.628;9.058;2023-06-22T13:42:50;30.40;99.90
7411;DHT22;3747;48.628;9.058;2023-06-22T13:45:17;30.00;99.90
7411;DHT22;3747;48.628;9.058;2023-06-22T13:47:45;30.30;99.90
7411;DHT22;3747;48.628;9.058;2023-06-22T13:50:12;30.20;99.90
7411;DHT22;3747;48.628;9.058;2023-06-22T13:52:39;30.50;99.90
7411;DHT22;3747;48.628;9.058;2023-06-22T13:55:08;31.00;99.90
7411;DHT22;3747;48.628;9.058;2023-06-22T13:57:35;32.00;99.90
7411;DHT22;3747;48.628;9.058;2023-06-22T14:00:03;32.20;99.90
7411;DHT22;3747;48.628;9.058;2023-06-22T14:02:31;32.80;99.90
7411;DHT22;3747;48.628;9.058;2023-06-22T14:04:57;33.10;99.90
7411;DHT22;3747;48.628;9.058;2023-06-22T14:07:24;32.80;99.90
7411;DHT22;3747;48.628;9.058;2023-06-22T14:10:10;33.00;99.90
7411;DHT22;3747;48.628;9.058;2023-06-22T14:12:37;32.40;99.90
7411;DHT22;3747;48.628;9.058;2023-06-22T14:15:05;32.10;99.90
7411;DHT22;3747;48.628;9.058;2023-06-22T14:17:32;31.80;99.90
7411;DHT22;3747;48.628;9.058;2023-06-22T14:19:58;31.50;99.90
7411;DHT22;3747;48.628;9.058;2023-06-22T14:22:25;31.40;99.90
7411;DHT22;3747;48.628;9.058;2023-06-22T14:24:54;31.40;99.90
7411;DHT22;3747;48.628;9.058;2023-06-22T14:27:24;31.90;99.90
7411;DHT22;3747;48.628;9.058;2023-06-22T14:29:53;32.90;99.90
7411;DHT22;3747;48.628;9.058;2023-06-22T14:32:19;33.60;97.90
7411;DHT22;3747;48.628;9.058;2023-06-22T14:34:46;34.00;98.00
7411;DHT22;3747;48.628;9.058;2023-06-22T14:37:13;34.20;93.50
7411;DHT22;3747;48.628;9.058;2023-06-22T14:39:39;34.00;93.30
7411;DHT22;3747;48.628;9.058;2023-06-22T14:42:06;34.60;93.50
7411;DHT22;3747;48.628;9.058;2023-06-22T14:44:48;35.00;92.50
7411;DHT22;3747;48.628;9.058;2023-06-22T14:47:15;34.20;85.80
7411;DHT22;3747;48.628;9.058;2023-06-22T14:49:43;33.30;83.30
7411;DHT22;3747;48.628;9.058;2023-06-22T14:52:10;33.00;87.70
7411;DHT22;3747;48.628;9.058;2023-06-22T14:54:37;32.80;88.50
7411;DHT22;3747;48.628;9.058;2023-06-22T14:57:14;32.10;90.20
7411;DHT22;3747;48.628;9.058;2023-06-22T14:59:50;31.70;87.20
7411;DHT22;3747;48.628;9.058;2023-06-22T15:02:17;31.60;90.00
7411;DHT22;3747;48.628;9.058;2023-06-22T15:04:50;31.90;85.90
7411;DHT22;3747;48.628;9.058;2023-06-22T15:07:22;32.20;85.40
7411;DHT22;3747;48.628;9.058;2023-06-22T15:09:49;32.10;84.80
7411;DHT22;3747;48.628;9.058;2023-06-22T15:12:23;32.30;83.30
7411;DHT22;3747;48.628;9.058;2023-06-22T15:14:51;32.90;82.50
7411;DHT22;3747;48.628;9.058;2023-06-22T15:17:17;33.40;82.30
7411;DHT22;3747;48.628;9.058;2023-06-22T15:19:44;32.90;81.70
7411;DHT22;3747;48.628;9.058;2023-06-22T15:22:11;32.30;81.50
7411;DHT22;3747;48.628;9.058;2023-06-22T15:24:38;32.10;84.40
7411;DHT22;3747;48.628;9.058;2023-06-22T15:27:05;31.70;84.30
7411;DHT22;3747;48.628;9.058;2023-06-22T15:29:32;31.30;83.40
7411;DHT22;3747;48.628;9.058;2023-06-22T15:32:01;31.10;83.30
7411;DHT22;3747;48.628;9.058;2023-06-22T15:34:27;31.00;83.60
7411;DHT22;3747;48.628;9.058;2023-06-22T15:36:54;30.70;84.70
7411;DHT22;3747;48.628;9.058;2023-06-22T15:39:21;30.90;84.90
7411;DHT22;3747;48.628;9.058;2023-06-22T15:41:50;30.80;87.90
7411;DHT22;3747;48.628;9.058;2023-06-22T15:44:19;30.80;85.40
7411;DHT22;3747;48.628;9.058;2023-06-22T15:46:46;30.70;86.30
7411;DHT22;3747;48.628;9.058;2023-06-22T15:49:14;30.50;84.40
7411;DHT22;3747;48.628;9.058;2023-06-22T15:51:41;30.00;86.40
7411;DHT22;3747;48.628;9.058;2023-06-22T15:54:07;29.80;86.30
7411;DHT22;3747;48.628;9.058;2023-06-22T15:56:34;29.50;87.60
7411;DHT22;3747;48.628;9.058;2023-06-22T15:59:01;29.30;89.70
7411;DHT22;3747;48.628;9.058;2023-06-22T16:01:27;29.10;89.70
7411;DHT22;3747;48.628;9.058;2023-06-22T16:03:54;29.00;90.30
7411;DHT22;3747;48.628;9.058;2023-06-22T16:09:21;28.80;91.00